Terminal Aerodrome Forecast
Issued by NWS Boston, MA

Home | Current Version | Previous Version | Text Only | Print | Product List | Glossary On
Versions: 1 2 3 4 5 6 7 8 9 10 11 12 13 14 15 16 17 18 19 20 21 22 23 24 25 26 27 28 29 30 31 32 33 34 35 36 37 38 39 40 41 42 43 44 45 46 47 48
000
FTUS41 KBOX 191120
TAFPVD
TAF
KPVD 191120Z 1912/2012 05003KT 5SM BR SCT007 BKN015
     FM191500 14005KT P6SM BKN025
     FM191700 16007KT P6SM BKN060
     FM200000 16008KT 3SM BR OVC010
     FM200400 14004KT 3SM BR OVC003=

USA.gov is the U.S. government's official web portal to all federal, state and local government web resources and services.